sensor_id;sensor_type;location;lat;lon;timestamp;pressure;altitude;pressure_sealevel;temperature;humidity
31096;BME280;17749;51.962;8.560;2023-10-13T05:07:54;99488.75;;;16.07;100.00
31096;BME280;17749;51.962;8.560;2023-10-13T05:10:39;99482.38;;;16.08;100.00
31096;BME280;17749;51.962;8.560;2023-10-13T05:13:25;99479.59;;;16.09;100.00
31096;BME280;17749;51.962;8.560;2023-10-13T05:16:10;99477.66;;;16.11;100.00
31096;BME280;17749;51.962;8.560;2023-10-13T05:18:56;99475.94;;;16.10;100.00
31096;BME280;17749;51.962;8.560;2023-10-13T05:21:42;99477.66;;;16.11;100.00
31096;BME280;17749;51.962;8.560;2023-10-13T05:24:28;99461.66;;;16.10;100.00
31096;BME280;17749;51.962;8.560;2023-10-13T05:27:14;99455.19;;;16.12;100.00
31096;BME280;17749;51.962;8.560;2023-10-13T05:29:59;99455.44;;;16.09;100.00
31096;BME280;17749;51.962;8.560;2023-10-13T05:32:45;99452.75;;;16.09;100.00
31096;BME280;17749;51.962;8.560;2023-10-13T05:35:30;99457.38;;;16.07;100.00
31096;BME280;17749;51.962;8.560;2023-10-13T05:38:16;99452.97;;;16.06;100.00
31096;BME280;17749;51.962;8.560;2023-10-13T05:41:02;99450.06;;;16.09;100.00
31096;BME280;17749;51.962;8.560;2023-10-13T05:43:51;99438.34;;;16.10;100.00
31096;BME280;17749;51.962;8.560;2023-10-13T05:46:37;99432.22;;;16.08;100.00
31096;BME280;17749;51.962;8.560;2023-10-13T05:49:05;99430.50;;;16.07;100.00
31096;BME280;17749;51.962;8.560;2023-10-13T05:51:32;99424.16;;;16.08;100.00
31096;BME280;17749;51.962;8.560;2023-10-13T05:54:00;99421.47;;;16.08;100.00
31096;BME280;17749;51.962;8.560;2023-10-13T05:56:42;99407.09;;;16.09;100.00
31096;BME280;17749;51.962;8.560;2023-10-13T05:59:28;99412.47;;;16.09;100.00
31096;BME280;17749;51.962;8.560;2023-10-13T06:02:14;99404.06;;;16.14;100.00
31096;BME280;17749;51.962;8.560;2023-10-13T06:05:01;99407.59;;;16.14;100.00
31096;BME280;17749;51.962;8.560;2023-10-13T06:07:47;99410.28;;;16.14;100.00
31096;BME280;17749;51.962;8.560;2023-10-13T06:10:32;99413.69;;;16.16;100.00
31096;BME280;17749;51.962;8.560;2023-10-13T06:13:18;99404.94;;;16.14;100.00
31096;BME280;17749;51.962;8.560;2023-10-13T06:16:07;99406.41;;;16.18;100.00
31096;BME280;17749;51.962;8.560;2023-10-13T06:18:53;99407.16;;;16.20;100.00
31096;BME280;17749;51.962;8.560;2023-10-13T06:21:39;99406.16;;;16.21;100.00
31096;BME280;17749;51.962;8.560;2023-10-13T06:24:24;99413.25;;;16.23;100.00
31096;BME280;17749;51.962;8.560;2023-10-13T06:27:09;99411.53;;;16.21;100.00
31096;BME280;17749;51.962;8.560;2023-10-13T06:29:55;99412.19;;;16.25;100.00
31096;BME280;17749;51.962;8.560;2023-10-13T06:32:22;99403.97;;;16.27;100.00
31096;BME280;17749;51.962;8.560;2023-10-13T06:34:53;99392.06;;;16.31;100.00
31096;BME280;17749;51.962;8.560;2023-10-13T06:37:25;99390.22;;;16.31;100.00
31096;BME280;17749;51.962;8.560;2023-10-13T06:40:02;99395.59;;;16.31;100.00
31096;BME280;17749;51.962;8.560;2023-10-13T06:42:33;99396.44;;;16.32;100.00
31096;BME280;17749;51.962;8.560;2023-10-13T06:45:09;99388.28;;;16.33;100.00
31096;BME280;17749;51.962;8.560;2023-10-13T06:47:36;99393.56;;;16.35;100.00
31096;BME280;17749;51.962;8.560;2023-10-13T06:50:13;99381.91;;;16.34;100.00
31096;BME280;17749;51.962;8.560;2023-10-13T06:52:43;99387.94;;;16.38;100.00
31096;BME280;17749;51.962;8.560;2023-10-13T06:55:11;99386.22;;;16.37;100.00
31096;BME280;17749;51.962;8.560;2023-10-13T06:58:07;99383.53;;;16.37;100.00
31096;BME280;17749;51.962;8.560;2023-10-13T07:00:33;99385.25;;;16.38;100.00
31096;BME280;17749;51.962;8.560;2023-10-13T07:03:04;99392.22;;;16.40;100.00
31096;BME280;17749;51.962;8.560;2023-10-13T07:05:45;99387.69;;;16.41;100.00
31096;BME280;17749;51.962;8.560;2023-10-13T07:08:14;99390.16;;;16.44;100.00
31096;BME280;17749;51.962;8.560;2023-10-13T07:10:53;99389.91;;;16.47;100.00
31096;BME280;17749;51.962;8.560;2023-10-13T07:13:29;99395.06;;;16.50;100.00
31096;BME280;17749;51.962;8.560;2023-10-13T07:15:56;99396.66;;;16.53;100.00
31096;BME280;17749;51.962;8.560;2023-10-13T07:18:37;99391.91;;;16.56;100.00
31096;BME280;17749;51.962;8.560;2023-10-13T07:21:09;99392.66;;;16.58;100.00
31096;BME280;17749;51.962;8.560;2023-10-13T07:23:39;99387.06;;;16.61;100.00
31096;BME280;17749;51.962;8.560;2023-10-13T07:26:06;99376.06;;;16.64;100.00
31096;BME280;17749;51.962;8.560;2023-10-13T07:28:35;99380.00;;;16.72;100.00
31096;BME280;17749;51.962;8.560;2023-10-13T07:31:03;99382.44;;;16.75;100.00
31096;BME280;17749;51.962;8.560;2023-10-13T07:33:30;99379.63;;;16.76;100.00
31096;BME280;17749;51.962;8.560;2023-10-13T07:36:01;99380.91;;;16.83;100.00
31096;BME280;17749;51.962;8.560;2023-10-13T07:38:37;99374.41;;;16.86;100.00
31096;BME280;17749;51.962;8.560;2023-10-13T07:41:04;99378.81;;;16.87;100.00
31096;BME280;17749;51.962;8.560;2023-10-13T07:43:35;99379.56;;;16.89;100.00
31096;BME280;17749;51.962;8.560;2023-10-13T07:46:04;99380.41;;;16.90;100.00
31096;BME280;17749;51.962;8.560;2023-10-13T07:48:36;99360.38;;;16.94;100.00
31096;BME280;17749;51.962;8.560;2023-10-13T07:51:04;99361.88;;;16.98;100.00
31096;BME280;17749;51.962;8.560;2023-10-13T07:53:32;99369.81;;;16.99;100.00
31096;BME280;17749;51.962;8.560;2023-10-13T07:56:01;99361.38;;;17.04;100.00
31096;BME280;17749;51.962;8.560;2023-10-13T07:58:35;99362.97;;;17.06;100.00
31096;BME280;17749;51.962;8.560;2023-10-13T08:01:22;99364.31;;;17.12;100.00
31096;BME280;17749;51.962;8.560;2023-10-13T08:03:49;99370.94;;;17.19;100.00
31096;BME280;17749;51.962;8.560;2023-10-13T08:06:31;99363.94;;;17.28;100.00
31096;BME280;17749;51.962;8.560;2023-10-13T08:08:58;99369.81;;;17.33;100.00
31096;BME280;17749;51.962;8.560;2023-10-13T08:11:35;99365.78;;;17.39;100.00
31096;BME280;17749;51.962;8.560;2023-10-13T08:14:04;99361.03;;;17.42;100.00
31096;BME280;17749;51.962;8.560;2023-10-13T08:16:53;99358.34;;;17.42;100.00
31096;BME280;17749;51.962;8.560;2023-10-13T08:19:26;99361.75;;;17.44;100.00
31096;BME280;17749;51.962;8.560;2023-10-13T08:21:54;99358.94;;;17.46;100.00
31096;BME280;17749;51.962;8.560;2023-10-13T08:24:26;99361.25;;;17.50;100.00
31096;BME280;17749;51.962;8.560;2023-10-13T08:26:55;99365.16;;;17.58;100.00
31096;BME280;17749;51.962;8.560;2023-10-13T08:29:46;99353.66;;;17.67;100.00
31096;BME280;17749;51.962;8.560;2023-10-13T08:32:26;99351.19;;;17.75;100.00
31096;BME280;17749;51.962;8.560;2023-10-13T08:34:56;99351.19;;;17.86;100.00
31096;BME280;17749;51.962;8.560;2023-10-13T08:37:24;99345.44;;;17.91;100.00
31096;BME280;17749;51.962;8.560;2023-10-13T08:39:54;99342.94;;;17.99;100.00
31096;BME280;17749;51.962;8.560;2023-10-13T08:42:35;99327.13;;;18.06;100.00
31096;BME280;17749;51.962;8.560;2023-10-13T08:45:09;99327.22;;;18.15;100.00
31096;BME280;17749;51.962;8.560;2023-10-13T08:47:55;99315.47;;;18.16;100.00
31096;BME280;17749;51.962;8.560;2023-10-13T08:50:44;99314.34;;;18.19;100.00
31096;BME280;17749;51.962;8.560;2023-10-13T08:56:10;99301.53;;;18.32;100.00
31096;BME280;17749;51.962;8.560;2023-10-13T08:58:41;99301.28;;;18.35;100.00
31096;BME280;17749;51.962;8.560;2023-10-13T09:04:08;99293.78;;;18.60;100.00
31096;BME280;17749;51.962;8.560;2023-10-13T09:06:46;99283.16;;;18.79;100.00
31096;BME280;17749;51.962;8.560;2023-10-13T09:09:14;99282.94;;;18.92;100.00
31096;BME280;17749;51.962;8.560;2023-10-13T09:12:00;99264.22;;;19.00;100.00
31096;BME280;17749;51.962;8.560;2023-10-13T09:14:36;99261.38;;;19.02;100.00
31096;BME280;17749;51.962;8.560;2023-10-13T09:17:11;99244.78;;;19.07;100.00
31096;BME280;17749;51.962;8.560;2023-10-13T09:24:55;99244.19;;;19.34;100.00
31096;BME280;17749;51.962;8.560;2023-10-13T09:27:25;99236.22;;;19.42;100.00
31096;BME280;17749;51.962;8.560;2023-10-13T09:29:57;99225.72;;;19.39;100.00
31096;BME280;17749;51.962;8.560;2023-10-13T09:32:24;99227.84;;;19.45;100.00
31096;BME280;17749;51.962;8.560;2023-10-13T09:34:51;99220.88;;;19.42;100.00
31096;BME280;17749;51.962;8.560;2023-10-13T09:37:18;99215.47;;;19.42;100.00
31096;BME280;17749;51.962;8.560;2023-10-13T09:39:48;99206.38;;;19.43;100.00
31096;BME280;17749;51.962;8.560;2023-10-13T09:42:20;99202.41;;;19.47;100.00
31096;BME280;17749;51.962;8.560;2023-10-13T09:44:50;99204.41;;;19.55;100.00
31096;BME280;17749;51.962;8.560;2023-10-13T09:47:22;99191.19;;;19.52;100.00
31096;BME280;17749;51.962;8.560;2023-10-13T09:50:04;99179.97;;;19.47;100.00
31096;BME280;17749;51.962;8.560;2023-10-13T09:52:41;99189.03;;;19.46;100.00
31096;BME280;17749;51.962;8.560;2023-10-13T09:55:11;99190.19;;;19.53;100.00
31096;BME280;17749;51.962;8.560;2023-10-13T09:57:41;99185.66;;;19.63;100.00
31096;BME280;17749;51.962;8.560;2023-10-13T10:00:12;99176.03;;;19.70;100.00
31096;BME280;17749;51.962;8.560;2023-10-13T10:02:58;99169.75;;;19.80;100.00
31096;BME280;17749;51.962;8.560;2023-10-13T10:05:32;99165.50;;;19.67;100.00
31096;BME280;17749;51.962;8.560;2023-10-13T10:08:01;99172.03;;;19.75;100.00
31096;BME280;17749;51.962;8.560;2023-10-13T10:10:41;99169.75;;;19.80;100.00
31096;BME280;17749;51.962;8.560;2023-10-13T10:13:13;99155.97;;;19.83;100.00
31096;BME280;17749;51.962;8.560;2023-10-13T10:15:46;99156.97;;;19.91;100.00
31096;BME280;17749;51.962;8.560;2023-10-13T10:18:19;99150.13;;;19.97;100.00
31096;BME280;17749;51.962;8.560;2023-10-13T10:20:48;99162.06;;;20.04;100.00
31096;BME280;17749;51.962;8.560;2023-10-13T10:23:25;99144.97;;;20.13;100.00
31096;BME280;17749;51.962;8.560;2023-10-13T10:25:54;99145.50;;;20.17;100.00
31096;BME280;17749;51.962;8.560;2023-10-13T10:28:37;99138.41;;;20.16;100.00
31096;BME280;17749;51.962;8.560;2023-10-13T10:31:06;99139.78;;;20.30;100.00
31096;BME280;17749;51.962;8.560;2023-10-13T10:33:44;99120.31;;;20.36;100.00
31096;BME280;17749;51.962;8.560;2023-10-13T10:36:13;99122.69;;;20.39;100.00
31096;BME280;17749;51.962;8.560;2023-10-13T10:38:56;99115.72;;;20.46;100.00
31096;BME280;17749;51.962;8.560;2023-10-13T10:41:26;99111.81;;;20.58;100.00
31096;BME280;17749;51.962;8.560;2023-10-13T10:44:32;99124.38;;;20.60;100.00
31096;BME280;17749;51.962;8.560;2023-10-13T10:47:15;99123.34;;;20.61;100.00
31096;BME280;17749;51.962;8.560;2023-10-13T10:49:58;99114.22;;;20.62;100.00
31096;BME280;17749;51.962;8.560;2023-10-13T10:52:27;99108.94;;;20.70;100.00
31096;BME280;17749;51.962;8.560;2023-10-13T10:55:03;99107.00;;;20.80;100.00
31096;BME280;17749;51.962;8.560;2023-10-13T10:57:40;99102.78;;;20.95;100.00
31096;BME280;17749;51.962;8.560;2023-10-13T11:00:20;99079.28;;;21.14;100.00
31096;BME280;17749;51.962;8.560;2023-10-13T11:02:56;99090.00;;;21.33;100.00
31096;BME280;17749;51.962;8.560;2023-10-13T11:05:24;99085.06;;;21.47;100.00
31096;BME280;17749;51.962;8.560;2023-10-13T11:07:59;99078.25;;;21.42;100.00
31096;BME280;17749;51.962;8.560;2023-10-13T11:10:30;99075.31;;;21.54;100.00
31096;BME280;17749;51.962;8.560;2023-10-13T11:12:59;99061.84;;;21.62;100.00
31096;BME280;17749;51.962;8.560;2023-10-13T11:15:48;99057.63;;;21.67;100.00
31096;BME280;17749;51.962;8.560;2023-10-13T11:18:17;99063.81;;;21.78;100.00
31096;BME280;17749;51.962;8.560;2023-10-13T11:20:50;99052.28;;;21.76;100.00
31096;BME280;17749;51.962;8.560;2023-10-13T11:23:20;99059.63;;;21.83;100.00
31096;BME280;17749;51.962;8.560;2023-10-13T11:25:58;99049.16;;;21.88;100.00
31096;BME280;17749;51.962;8.560;2023-10-13T11:28:28;99048.44;;;21.86;100.00
31096;BME280;17749;51.962;8.560;2023-10-13T11:30:55;99040.47;;;21.85;100.00
31096;BME280;17749;51.962;8.560;2023-10-13T11:33:26;99040.59;;;21.75;100.00
31096;BME280;17749;51.962;8.560;2023-10-13T11:35:57;99035.50;;;21.72;100.00
31096;BME280;17749;51.962;8.560;2023-10-13T11:41:04;99036.13;;;21.66;100.00
31096;BME280;17749;51.962;8.560;2023-10-13T11:43:35;99025.28;;;21.66;100.00
31096;BME280;17749;51.962;8.560;2023-10-13T11:46:21;99024.22;;;21.59;100.00
31096;BME280;17749;51.962;8.560;2023-10-13T11:49:05;99017.41;;;21.55;100.00
31096;BME280;17749;51.962;8.560;2023-10-13T11:51:44;99017.84;;;21.68;100.00
31096;BME280;17749;51.962;8.560;2023-10-13T11:54:15;99025.19;;;21.76;100.00
31096;BME280;17749;51.962;8.560;2023-10-13T11:56:42;99018.78;;;21.85;100.00
31096;BME280;17749;51.962;8.560;2023-10-13T11:59:09;99017.00;;;21.94;100.00
31096;BME280;17749;51.962;8.560;2023-10-13T12:01:46;99014.50;;;22.08;100.00
31096;BME280;17749;51.962;8.560;2023-10-13T12:04:31;99022.25;;;22.21;100.00
31096;BME280;17749;51.962;8.560;2023-10-13T12:07:10;99006.50;;;22.25;100.00
31096;BME280;17749;51.962;8.560;2023-10-13T12:09:55;99005.97;;;22.21;100.00
31096;BME280;17749;51.962;8.560;2023-10-13T12:12:23;98989.50;;;22.15;100.00
31096;BME280;17749;51.962;8.560;2023-10-13T12:14:50;98985.03;;;22.05;100.00
31096;BME280;17749;51.962;8.560;2023-10-13T12:17:22;98981.81;;;22.02;100.00
31096;BME280;17749;51.962;8.560;2023-10-13T12:19:52;98983.81;;;22.00;100.00
31096;BME280;17749;51.962;8.560;2023-10-13T12:22:19;98975.31;;;21.95;100.00
31096;BME280;17749;51.962;8.560;2023-10-13T12:25:02;98964.81;;;21.92;100.00
31096;BME280;17749;51.962;8.560;2023-10-13T12:27:32;98954.47;;;21.95;100.00
31096;BME280;17749;51.962;8.560;2023-10-13T12:30:02;98964.53;;;22.11;100.00
31096;BME280;17749;51.962;8.560;2023-10-13T12:32:34;98953.47;;;22.30;100.00
31096;BME280;17749;51.962;8.560;2023-10-13T12:35:01;98959.44;;;22.42;100.00
31096;BME280;17749;51.962;8.560;2023-10-13T12:37:29;98958.81;;;22.57;100.00
31096;BME280;17749;51.962;8.560;2023-10-13T12:42:54;98947.13;;;22.56;100.00
31096;BME280;17749;51.962;8.560;2023-10-13T12:45:42;98944.38;;;22.48;100.00
31096;BME280;17749;51.962;8.560;2023-10-13T12:48:28;98931.13;;;22.37;100.00
31096;BME280;17749;51.962;8.560;2023-10-13T12:51:14;98939.78;;;22.40;100.00
31096;BME280;17749;51.962;8.560;2023-10-13T12:53:48;98941.59;;;22.31;100.00
31096;BME280;17749;51.962;8.560;2023-10-13T12:56:15;98941.94;;;22.28;100.00
31096;BME280;17749;51.962;8.560;2023-10-13T12:58:42;98936.19;;;22.31;100.00
31096;BME280;17749;51.962;8.560;2023-10-13T13:01:18;98926.69;;;22.27;100.00
31096;BME280;17749;51.962;8.560;2023-10-13T13:03:48;98932.50;;;22.41;100.00
31096;BME280;17749;51.962;8.560;2023-10-13T13:06:19;98929.47;;;22.52;100.00
31096;BME280;17749;51.962;8.560;2023-10-13T13:08:56;98932.88;;;22.54;100.00
31096;BME280;17749;51.962;8.560;2023-10-13T13:11:23;98922.69;;;22.56;100.00
31096;BME280;17749;51.962;8.560;2023-10-13T13:13:52;98917.44;;;22.63;100.00
31096;BME280;17749;51.962;8.560;2023-10-13T13:16:19;98924.94;;;22.69;100.00
31096;BME280;17749;51.962;8.560;2023-10-13T13:18:51;98914.56;;;22.64;100.00
31096;BME280;17749;51.962;8.560;2023-10-13T13:21:18;98918.63;;;22.68;100.00
31096;BME280;17749;51.962;8.560;2023-10-13T13:23:51;98913.19;;;22.68;100.00
31096;BME280;17749;51.962;8.560;2023-10-13T13:26:18;98893.22;;;22.78;100.00
31096;BME280;17749;51.962;8.560;2023-10-13T13:28:45;98897.25;;;22.73;100.00
31096;BME280;17749;51.962;8.560;2023-10-13T13:31:12;98906.94;;;22.68;100.00
31096;BME280;17749;51.962;8.560;2023-10-13T13:33:39;98898.44;;;22.63;100.00
31096;BME280;17749;51.962;8.560;2023-10-13T13:36:10;98897.59;;;22.62;100.00
31096;BME280;17749;51.962;8.560;2023-10-13T13:38:43;98890.50;;;22.61;100.00
31096;BME280;17749;51.962;8.560;2023-10-13T13:41:16;98889.63;;;22.61;100.00
31096;BME280;17749;51.962;8.560;2023-10-13T13:43:43;98878.78;;;22.61;100.00
31096;BME280;17749;51.962;8.560;2023-10-13T13:46:17;98883.00;;;22.55;100.00
31096;BME280;17749;51.962;8.560;2023-10-13T13:48:45;98874.38;;;22.51;100.00
31096;BME280;17749;51.962;8.560;2023-10-13T13:51:14;98875.88;;;22.46;100.00
31096;BME280;17749;51.962;8.560;2023-10-13T13:53:42;98878.94;;;22.43;100.00
31096;BME280;17749;51.962;8.560;2023-10-13T13:56:12;98875.53;;;22.41;100.00
31096;BME280;17749;51.962;8.560;2023-10-13T13:58:46;98879.94;;;22.42;100.00
31096;BME280;17749;51.962;8.560;2023-10-13T14:01:13;98859.28;;;22.49;100.00
31096;BME280;17749;51.962;8.560;2023-10-13T14:03:48;98875.06;;;22.53;100.00
31096;BME280;17749;51.962;8.560;2023-10-13T14:06:21;98866.56;;;22.57;100.00
31096;BME280;17749;51.962;8.560;2023-10-13T14:08:57;98860.81;;;22.60;100.00
31096;BME280;17749;51.962;8.560;2023-10-13T14:11:27;98858.25;;;22.58;100.00
31096;BME280;17749;51.962;8.560;2023-10-13T14:14:10;98865.38;;;22.51;100.00
31096;BME280;17749;51.962;8.560;2023-10-13T14:16:41;98860.97;;;22.50;100.00
31096;BME280;17749;51.962;8.560;2023-10-13T14:19:14;98861.66;;;22.44;100.00
31096;BME280;17749;51.962;8.560;2023-10-13T14:21:46;98868.41;;;22.40;100.00
31096;BME280;17749;51.962;8.560;2023-10-13T14:24:20;98864.00;;;22.39;100.00
31096;BME280;17749;51.962;8.560;2023-10-13T14:26:55;98856.22;;;22.36;100.00
31096;BME280;17749;51.962;8.560;2023-10-13T14:29:22;98861.78;;;22.34;100.00
31096;BME280;17749;51.962;8.560;2023-10-13T14:31:53;98857.53;;;22.31;100.00
31096;BME280;17749;51.962;8.560;2023-10-13T14:34:20;98862.28;;;22.29;100.00
31096;BME280;17749;51.962;8.560;2023-10-13T14:36:48;98867.03;;;22.27;100.00
31096;BME280;17749;51.962;8.560;2023-10-13T14:39:15;98863.97;;;22.22;100.00
31096;BME280;17749;51.962;8.560;2023-10-13T14:41:42;98851.41;;;22.21;100.00
31096;BME280;17749;51.962;8.560;2023-10-13T14:44:09;98865.66;;;22.23;100.00
31096;BME280;17749;51.962;8.560;2023-10-13T14:46:39;98875.16;;;22.19;100.00
31096;BME280;17749;51.962;8.560;2023-10-13T14:49:06;98874.13;;;22.20;100.00
31096;BME280;17749;51.962;8.560;2023-10-13T14:51:33;98869.41;;;22.22;100.00
31096;BME280;17749;51.962;8.560;2023-10-13T14:54:06;98867.16;;;22.18;100.00
31096;BME280;17749;51.962;8.560;2023-10-13T14:56:33;98866.00;;;22.20;100.00
31096;BME280;17749;51.962;8.560;2023-10-13T14:59:00;98872.47;;;22.19;100.00
31096;BME280;17749;51.962;8.560;2023-10-13T15:01:26;98858.56;;;22.22;100.00
31096;BME280;17749;51.962;8.560;2023-10-13T15:03:54;98868.56;;;22.22;100.00
31096;BME280;17749;51.962;8.560;2023-10-13T15:06:25;98864.13;;;22.21;100.00
31096;BME280;17749;51.962;8.560;2023-10-13T15:08:57;98856.47;;;22.16;100.00
31096;BME280;17749;51.962;8.560;2023-10-13T15:11:25;98873.25;;;22.12;100.00
31096;BME280;17749;51.962;8.560;2023-10-13T15:14:14;98858.16;;;22.09;100.00
31096;BME280;17749;51.962;8.560;2023-10-13T15:16:41;98865.09;;;22.03;100.00
31096;BME280;17749;51.962;8.560;2023-10-13T15:19:10;98869.66;;;22.03;100.00
31096;BME280;17749;51.962;8.560;2023-10-13T15:21:38;98863.88;;;21.98;100.00
31096;BME280;17749;51.962;8.560;2023-10-13T15:24:07;98863.50;;;21.93;100.00
31096;BME280;17749;51.962;8.560;2023-10-13T15:26:52;98864.88;;;21.88;100.00
31096;BME280;17749;51.962;8.560;2023-10-13T15:29:24;98868.91;;;21.84;100.00
31096;BME280;17749;51.962;8.560;2023-10-13T15:32:02;98863.47;;;21.84;100.00
31096;BME280;17749;51.962;8.560;2023-10-13T15:34:29;98857.72;;;21.79;100.00
31096;BME280;17749;51.962;8.560;2023-10-13T15:36:56;98860.06;;;21.74;100.00
31096;BME280;17749;51.962;8.560;2023-10-13T15:39:23;98856.34;;;21.75;100.00
31096;BME280;17749;51.962;8.560;2023-10-13T15:41:50;98851.28;;;21.72;100.00
31096;BME280;17749;51.962;8.560;2023-10-13T15:44:20;98848.84;;;21.69;100.00
31096;BME280;17749;51.962;8.560;2023-10-13T15:46:52;98845.13;;;21.62;100.00
31096;BME280;17749;51.962;8.560;2023-10-13T15:49:22;98835.94;;;21.55;100.00
31096;BME280;17749;51.962;8.560;2023-10-13T15:51:49;98846.94;;;21.53;100.00
31096;BME280;17749;51.962;8.560;2023-10-13T15:54:16;98849.63;;;21.53;100.00
31096;BME280;17749;51.962;8.560;2023-10-13T15:56:45;98848.75;;;21.44;100.00
31096;BME280;17749;51.962;8.560;2023-10-13T15:59:12;98843.34;;;21.44;100.00
31096;BME280;17749;51.962;8.560;2023-10-13T16:01:39;98839.63;;;21.45;100.00
31096;BME280;17749;51.962;8.560;2023-10-13T16:04:07;98830.13;;;21.41;100.00
31096;BME280;17749;51.962;8.560;2023-10-13T16:06:38;98830.97;;;21.42;100.00
31096;BME280;17749;51.962;8.560;2023-10-13T16:09:05;98830.97;;;21.42;100.00
31096;BME280;17749;51.962;8.560;2023-10-13T16:11:41;98824.31;;;21.36;100.00
31096;BME280;17749;51.962;8.560;2023-10-13T16:14:09;98831.75;;;21.34;100.00
31096;BME280;17749;51.962;8.560;2023-10-13T16:16:37;98832.06;;;21.31;100.00
31096;BME280;17749;51.962;8.560;2023-10-13T16:19:04;98834.78;;;21.31;100.00
31096;BME280;17749;51.962;8.560;2023-10-13T16:21:31;98836.78;;;21.29;100.00
31096;BME280;17749;51.962;8.560;2023-10-13T16:24:00;98851.03;;;21.31;100.00
31096;BME280;17749;51.962;8.560;2023-10-13T16:26:27;98836.66;;;21.31;100.00
31096;BME280;17749;51.962;8.560;2023-10-13T16:28:57;98845.75;;;21.30;100.00
31096;BME280;17749;51.962;8.560;2023-10-13T16:31:25;98843.56;;;21.25;100.00
31096;BME280;17749;51.962;8.560;2023-10-13T16:33:55;98842.69;;;21.24;100.00
31096;BME280;17749;51.962;8.560;2023-10-13T16:36:25;98844.88;;;21.21;100.00
31096;BME280;17749;51.962;8.560;2023-10-13T16:38:52;98845.19;;;21.18;100.00
31096;BME280;17749;51.962;8.560;2023-10-13T16:41:24;98853.66;;;21.15;100.00
31096;BME280;17749;51.962;8.560;2023-10-13T16:43:51;98847.53;;;21.13;100.00
31096;BME280;17749;51.962;8.560;2023-10-13T16:46:18;98849.22;;;21.14;100.00
31096;BME280;17749;51.962;8.560;2023-10-13T16:48:46;98845.16;;;21.10;100.00
31096;BME280;17749;51.962;8.560;2023-10-13T16:51:15;98842.78;;;21.07;100.00
31096;BME280;17749;51.962;8.560;2023-10-13T16:53:42;98841.06;;;21.06;100.00
31096;BME280;17749;51.962;8.560;2023-10-13T16:56:13;98843.06;;;21.04;100.00
31096;BME280;17749;51.962;8.560;2023-10-13T16:58:40;98832.09;;;21.05;100.00
31096;BME280;17749;51.962;8.560;2023-10-13T17:01:11;98838.66;;;21.02;100.00
31096;BME280;17749;51.962;8.560;2023-10-13T17:03:38;98834.91;;;20.95;100.00
31096;BME280;17749;51.962;8.560;2023-10-13T17:06:07;98827.78;;;20.94;100.00
31096;BME280;17749;51.962;8.560;2023-10-13T17:08:34;98835.91;;;20.94;100.00
31096;BME280;17749;51.962;8.560;2023-10-13T17:11:12;98841.31;;;20.94;100.00
31096;BME280;17749;51.962;8.560;2023-10-13T17:13:44;98846.72;;;20.94;100.00
31096;BME280;17749;51.962;8.560;2023-10-13T17:16:16;98844.19;;;20.93;100.00
31096;BME280;17749;51.962;8.560;2023-10-13T17:18:47;98847.66;;;20.85;100.00
31096;BME280;17749;51.962;8.560;2023-10-13T17:21:21;98841.22;;;20.78;100.00
31096;BME280;17749;51.962;8.560;2023-10-13T17:23:52;98837.50;;;20.79;100.00
31096;BME280;17749;51.962;8.560;2023-10-13T17:26:19;98832.41;;;20.76;100.00
31096;BME280;17749;51.962;8.560;2023-10-13T17:28:47;98833.03;;;20.70;100.00
31096;BME280;17749;51.962;8.560;2023-10-13T17:31:14;98824.38;;;20.66;100.00
31096;BME280;17749;51.962;8.560;2023-10-13T17:33:41;98822.69;;;20.65;100.00
31096;BME280;17749;51.962;8.560;2023-10-13T17:36:09;98821.84;;;20.65;100.00
31096;BME280;17749;51.962;8.560;2023-10-13T17:38:37;98829.94;;;20.65;100.00
31096;BME280;17749;51.962;8.560;2023-10-13T17:41:04;98825.22;;;20.67;100.00
31096;BME280;17749;51.962;8.560;2023-10-13T17:43:32;98825.53;;;20.64;100.00
31096;BME280;17749;51.962;8.560;2023-10-13T17:46:07;98829.72;;;20.58;100.00
31096;BME280;17749;51.962;8.560;2023-10-13T17:48:35;98827.22;;;20.47;100.00
31096;BME280;17749;51.962;8.560;2023-10-13T17:51:05;98834.56;;;20.36;100.00
31096;BME280;17749;51.962;8.560;2023-10-13T17:53:32;98837.03;;;20.30;100.00
31096;BME280;17749;51.962;8.560;2023-10-13T17:56:07;98821.13;;;20.27;100.00
31096;BME280;17749;51.962;8.560;2023-10-13T17:58:38;98814.88;;;20.26;100.00
31096;BME280;17749;51.962;8.560;2023-10-13T18:01:11;98810.94;;;20.21;100.00
31096;BME280;17749;51.962;8.560;2023-10-13T18:03:48;98806.25;;;20.23;100.00
31096;BME280;17749;51.962;8.560;2023-10-13T18:06:16;98808.56;;;20.18;100.00
31096;BME280;17749;51.962;8.560;2023-10-13T18:08:43;98793.94;;;20.10;100.00
31096;BME280;17749;51.962;8.560;2023-10-13T18:11:11;98802.81;;;20.03;100.00
31096;BME280;17749;51.962;8.560;2023-10-13T18:13:41;98794.06;;;19.91;100.00
31096;BME280;17749;51.962;8.560;2023-10-13T18:18:38;98778.16;;;19.70;100.00
31096;BME280;17749;51.962;8.560;2023-10-13T18:21:05;98772.34;;;19.65;100.00
31096;BME280;17749;51.962;8.560;2023-10-13T18:23:35;98765.00;;;19.57;100.00
31096;BME280;17749;51.962;8.560;2023-10-13T18:26:02;98763.28;;;19.56;100.00
31096;BME280;17749;51.962;8.560;2023-10-13T18:28:32;98763.28;;;19.56;100.00
31096;BME280;17749;51.962;8.560;2023-10-13T18:31:02;98767.31;;;19.52;100.00
31096;BME280;17749;51.962;8.560;2023-10-13T18:33:31;98760.06;;;19.53;100.00
31096;BME280;17749;51.962;8.560;2023-10-13T18:38:37;98765.38;;;19.44;100.00
31096;BME280;17749;51.962;8.560;2023-10-13T18:41:04;98763.94;;;19.40;100.00
31096;BME280;17749;51.962;8.560;2023-10-13T18:43:31;98768.66;;;19.38;100.00
31096;BME280;17749;51.962;8.560;2023-10-13T18:46:01;98770.19;;;19.41;100.00
31096;BME280;17749;51.962;8.560;2023-10-13T18:48:28;98768.50;;;19.40;100.00